This is the latest recevied weather packets stored in our database for station/object IU6BJT. If no packets are shown the sender has not sent any weather packets the latest 10 day(s).
| Time | Temp. | Humidity | Pressure | Rain* | Wind** | Luminosity | Snow |
|---|---|---|---|---|---|---|---|
| 1777417216 | 15.56° C | 89% | 1014.5 hPa | 0 mm | - | - | - |
| 1777413016 | 16.11° C | 85% | 1014.5 hPa | 0 mm | - | - | - |
| 1777412434 | 16.67° C | 85% | 1014.5 hPa | 0 mm | - | - | - |
| 1777410022 | 17.78° C | 82% | 1014.5 hPa | 0 mm | - | - | - |
| 1777406425 | 18.89° C | 76% | 1014.3 hPa | 0 mm | - | - | - |
| 1777401623 | 18.89° C | 75% | 1013.7 hPa | 0 mm | - | - | - |
| 1777398628 | 19.44° C | 75% | 1013.5 hPa | 0.76 mm | - | - | - |
| 1777393825 | 22.22° C | 57% | 1013.9 hPa | 0 mm | - | - | - |
| 1777392619 | 22.78° C | 52% | 1013.9 hPa | 0 mm | - | - | - |
| 1777391435 | 23.33° C | 52% | 1013.8 hPa | 0 mm | - | - | - |
| 1777390832 | 23.33° C | 51% | 1013.7 hPa | 0 mm | - | - | - |
| 1777386633 | 22.22° C | 59% | 1013.7 hPa | 0 mm | - | - | - |
| 1777383617 | 20.56° C | 68% | 1014.4 hPa | 0 mm | - | - | - |
| 1777377024 | 21.11° C | 69% | 1015 hPa | 0 mm | - | - | - |
| 1777376421 | 21.11° C | 68% | 1014.9 hPa | 0 mm | - | - | - |
| 1777374630 | 21.11° C | 67% | 1015.1 hPa | 0 mm | - | - | - |
| 1777373418 | 21.11° C | 67% | 1015.2 hPa | 0 mm | - | - | - |
| 1777371644 | 21.11° C | 68% | 1015.3 hPa | 0 mm | - | - | - |
| 1777368044 | 21.11° C | 60% | 1015.6 hPa | 0 mm | - | - | - |
| 1777365635 | 21.11° C | 59% | 1015.6 hPa | 0 mm | - | - | - |
| 1777365032 | 21.67° C | 60% | 1015.6 hPa | 0 mm | - | - | - |
| 1777360834 | 20.56° C | 56% | 1015.6 hPa | 0 mm | - | - | - |
| 1777360246 | 19.44° C | 59% | 1015.6 hPa | 0 mm | - | - | - |
| 1777359019 | 18.33° C | 63% | 1015.5 hPa | 0 mm | - | - | - |
| 1777354233 | 13.33° C | 81% | 1015.4 hPa | 0 mm | - | - | - |
* Rain latest hour (hover to see other rain measurements)
** Current wind speed in m/s (hover to see current wind gust speed)